Back to Top

Language: 

Current Local METAR Station Weather Reports...

Local METAR Reports

Local METAR Reports

 

EGCN - Doncaster Sheffield Airport, United Kingdom
Distance from station: E 20mi, 32km
Updated: Wed, 15-Aug-2018 3:50pm BST
Mostly Cloudy
Mostly Cloudy
 Wind from SW
Wind: SW 21 mph , 33 km/h
Temperature: 25°C
Dew Point: 16°C
Humidity: 57%
Barometer: 1013 hPa
Clouds: Mostly Cloudy
Visibility: 6 miles , 10 km
Cloud details: Mostly Cloudy 1067 m
2018/08/15 14:50 EGCN 151450Z 22018KT 9999 BKN035 25/16 Q1013
EGNM - Leeds Bradford International, United Kingdom
Distance from station: NNW 24mi, 39km
Updated: Wed, 15-Aug-2018 3:50pm BST
Partly Cloudy
Partly Cloudy
 Wind from SW
Wind: SW 12 mph , 19 km/h
Temperature: 21°C
Dew Point: 15°C
Humidity: 69%
Barometer: 1012 hPa
Clouds: Partly Cloudy
Visibility: 6 miles , 10 km
Cloud details: Partly Cloudy 671 m
Partly Cloudy 945 m
2018/08/15 14:50 EGNM 151450Z 23010KT 170V270 9999 SCT022 SCT031 21/15 Q1012
 
EGCC - Manchester International, United Kingdom
Distance from station: WSW 35mi, 56km
Updated: Wed, 15-Aug-2018 3:50pm BST
Mostly Cloudy
Mostly Cloudy
 Wind from SSW
Wind: SSW 12 mph , 19 km/h, Gust: 23 mph , 37 km/h
Temperature: 22°C
Dew Point: 16°C
Humidity: 69%
Barometer: 1013 hPa
Clouds: Mostly Cloudy
Visibility: 6 miles , 10 km
Cloud details: Mostly Cloudy 792 m
Mostly Cloudy 945 m
2018/08/15 14:50 EGCC 151450Z AUTO 21010G20KT 170V240 9999 BKN026 BKN031 22/16 Q1013
EGXU - Linton-On-Ouse RAF, United Kingdom
Distance from station: NNE 37mi, 60km
Updated: Wed, 15-Aug-2018 2:50pm BST
NOT Current
Mostly Cloudy
Mostly Cloudy
 Wind from SW
Wind: SW 20 mph , 31 km/h
Temperature: 23°C
Dew Point: 16°C
Humidity: 65%
Barometer: 1011 hPa
Clouds: Mostly Cloudy
Visibility: 6 miles , 10 km
Cloud details: Mostly Cloudy 914 m
2018/08/15 13:50 EGXU 151350Z 23017KT 9999 BKN030 23/16 Q1011 BLU NOSIG
 
EGXP - Scampton RAF, United Kingdom
Distance from station: ESE 41mi, 66km
Updated: Wed, 15-Aug-2018 3:50pm BST
Partly Cloudy
Partly Cloudy
 Wind from SW
Wind: SW 24 mph , 39 km/h
Temperature: 23°C
Dew Point: 16°C
Humidity: 65%
Barometer: 1013 hPa
Clouds: Partly Cloudy
Visibility: 6 miles , 10 km
Cloud details: Mostly Cloudy 1097 m
Partly Cloudy 3658 m
2018/08/15 14:50 EGXP 151450Z 23021KT 9999 BKN036 SCT120 23/16 Q1013 BLU
EGNJ - Humberside Airport, United Kingdom
Distance from station: E 46mi, 74km
Updated: Wed, 15-Aug-2018 3:50pm BST
Partly Cloudy
Partly Cloudy
 Wind from SW
Wind: SW 22 mph , 35 km/h
Temperature: 25°C
Dew Point: 15°C
Humidity: 54%
Barometer: 1012 hPa
Clouds: Partly Cloudy
Visibility: 6 miles , 10 km
Cloud details: Few Clouds 762 m
Partly Cloudy 1158 m
2018/08/15 14:50 EGNJ 151450Z 22019KT 9999 FEW025 SCT038 25/15 Q1012
 
EGXW - Waddington RAF, United Kingdom
Distance from station: ESE 46mi, 74km
Updated: Wed, 15-Aug-2018 3:50pm BST
Mostly Cloudy
Mostly Cloudy
 Wind from SW
Wind: SW 20 mph , 31 km/h
Temperature: 23°C
Dew Point: 15°C
Humidity: 61%
Barometer: 1013 hPa
Clouds: Mostly Cloudy
Visibility: 6 miles , 10 km
Cloud details: Mostly Cloudy 1067 m
2018/08/15 14:50 EGXW 151450Z 23017KT 9999 BKN035 23/15 Q1013 BLU NOSIG
EGXZ - Topcliffe RAF, United Kingdom
Distance from station: N 46mi, 75km
Updated: Wed, 15-Aug-2018 3:50pm BST
Mostly Cloudy
Mostly Cloudy
 Wind from WSW
Wind: WSW 18 mph , 30 km/h, Gust: 30 mph , 48 km/h
Temperature: 23°C
Dew Point: 16°C
Humidity: 65%
Barometer: 1011 hPa
Clouds: Mostly Cloudy
Visibility: 6 miles , 10 km
Cloud details: Mostly Cloudy 792 m
2018/08/15 14:50 EGXZ 151450Z 24016G26KT 9999 BKN026 23/16 Q1011 BLU
 
EGXV - Leconfield, United Kingdom
Distance from station: ENE 48mi, 77km
Updated: Wed, 15-Aug-2018 3:50pm BST
Partly Cloudy
Partly Cloudy
 Wind from SW
Wind: SW 16 mph , 26 km/h
Temperature: 25°C
Dew Point: 16°C
Humidity: 57%
Barometer: 1011 hPa
Clouds: Partly Cloudy
Visibility: 6 miles , 10 km
Cloud details: Mostly Cloudy 1158 m
Partly Cloudy 1341 m
2018/08/15 14:50 EGXV 151450Z AUTO 22014KT 9999 BKN038/// SCT044/// 25/16 Q1011
EGNX - East Midlands, United Kingdom
Distance from station: S 50mi, 80km
Updated: Wed, 15-Aug-2018 3:50pm BST
Mostly Cloudy
Mostly Cloudy
 Wind from SW
Wind: SW 18 mph , 30 km/h
Temperature: 23°C
Dew Point: 15°C
Humidity: 61%
Barometer: 1014 hPa
Clouds: Mostly Cloudy
Visibility: 6 miles , 10 km
Cloud details: Mostly Cloudy 1250 m
2018/08/15 14:50 EGNX 151450Z 22016KT 9999 BKN041 23/15 Q1014

Metar display script from Saratoga-Weather.org

Data updates at regular intervals.